sensor_id;sensor_type;location;lat;lon;timestamp;temperature;humidity
58153;DHT22;43967;51.634;5.566;2023-04-12T00:01:28;19.20;56.30
58153;DHT22;43967;51.634;5.566;2023-04-12T00:06:49;19.20;56.40
58153;DHT22;43967;51.634;5.566;2023-04-12T00:12:10;19.20;56.40
58153;DHT22;43967;51.634;5.566;2023-04-12T00:17:32;19.10;56.40
58153;DHT22;43967;51.634;5.566;2023-04-12T00:22:53;19.20;56.40
58153;DHT22;43967;51.634;5.566;2023-04-12T00:28:14;19.20;56.50
58153;DHT22;43967;51.634;5.566;2023-04-12T00:33:36;19.10;56.50
58153;DHT22;43967;51.634;5.566;2023-04-12T00:38:57;19.20;56.50
58153;DHT22;43967;51.634;5.566;2023-04-12T00:44:18;19.10;56.50
58153;DHT22;43967;51.634;5.566;2023-04-12T00:49:39;19.10;56.50
58153;DHT22;43967;51.634;5.566;2023-04-12T00:55:02;19.10;56.50
58153;DHT22;43967;51.634;5.566;2023-04-12T01:00:24;19.10;56.50
58153;DHT22;43967;51.634;5.566;2023-04-12T01:05:52;19.00;56.50
58153;DHT22;43967;51.634;5.566;2023-04-12T01:11:25;19.00;56.50
58153;DHT22;43967;51.634;5.566;2023-04-12T01:16:53;19.00;56.50
58153;DHT22;43967;51.634;5.566;2023-04-12T01:28:33;19.00;56.50
58153;DHT22;43967;51.634;5.566;2023-04-12T01:33:56;19.00;56.50
58153;DHT22;43967;51.634;5.566;2023-04-12T01:39:17;19.00;56.50
58153;DHT22;43967;51.634;5.566;2023-04-12T01:44:39;19.00;56.60
58153;DHT22;43967;51.634;5.566;2023-04-12T01:50:21;19.00;56.60
58153;DHT22;43967;51.634;5.566;2023-04-12T01:55:44;19.00;56.50
58153;DHT22;43967;51.634;5.566;2023-04-12T02:01:07;19.00;56.60
58153;DHT22;43967;51.634;5.566;2023-04-12T02:06:29;18.90;56.60
58153;DHT22;43967;51.634;5.566;2023-04-12T02:11:51;18.90;56.60
58153;DHT22;43967;51.634;5.566;2023-04-12T02:17:12;18.90;56.60
58153;DHT22;43967;51.634;5.566;2023-04-12T02:22:35;18.90;56.60
58153;DHT22;43967;51.634;5.566;2023-04-12T02:27:56;18.90;56.70
58153;DHT22;43967;51.634;5.566;2023-04-12T02:33:17;18.90;56.70
58153;DHT22;43967;51.634;5.566;2023-04-12T02:38:38;18.90;56.70
58153;DHT22;43967;51.634;5.566;2023-04-12T02:44:00;18.90;56.70
58153;DHT22;43967;51.634;5.566;2023-04-12T02:49:21;18.90;56.70
58153;DHT22;43967;51.634;5.566;2023-04-12T02:54:42;18.80;56.60
58153;DHT22;43967;51.634;5.566;2023-04-12T03:00:04;18.80;56.60
58153;DHT22;43967;51.634;5.566;2023-04-12T03:05:26;18.80;56.70
58153;DHT22;43967;51.634;5.566;2023-04-12T03:10:47;18.80;56.70
58153;DHT22;43967;51.634;5.566;2023-04-12T03:16:23;18.80;56.70
58153;DHT22;43967;51.634;5.566;2023-04-12T03:21:44;18.80;56.70
58153;DHT22;43967;51.634;5.566;2023-04-12T03:27:05;18.80;56.70
58153;DHT22;43967;51.634;5.566;2023-04-12T03:32:27;18.80;56.70
58153;DHT22;43967;51.634;5.566;2023-04-12T03:37:48;18.80;56.70
58153;DHT22;43967;51.634;5.566;2023-04-12T03:43:09;18.80;56.80
58153;DHT22;43967;51.634;5.566;2023-04-12T03:48:31;18.80;56.70
58153;DHT22;43967;51.634;5.566;2023-04-12T03:53:52;18.70;56.70
58153;DHT22;43967;51.634;5.566;2023-04-12T03:59:13;18.70;56.70
58153;DHT22;43967;51.634;5.566;2023-04-12T04:04:35;18.70;56.80
58153;DHT22;43967;51.634;5.566;2023-04-12T04:09:56;18.70;56.80
58153;DHT22;43967;51.634;5.566;2023-04-12T04:15:18;18.70;56.80
58153;DHT22;43967;51.634;5.566;2023-04-12T04:20:39;18.70;56.80
58153;DHT22;43967;51.634;5.566;2023-04-12T04:26:00;18.70;56.80
58153;DHT22;43967;51.634;5.566;2023-04-12T04:31:21;18.60;56.80
58153;DHT22;43967;51.634;5.566;2023-04-12T04:36:43;18.60;56.80
58153;DHT22;43967;51.634;5.566;2023-04-12T04:42:04;18.70;56.90
58153;DHT22;43967;51.634;5.566;2023-04-12T04:47:25;18.60;56.80
58153;DHT22;43967;51.634;5.566;2023-04-12T04:52:47;18.60;56.90
58153;DHT22;43967;51.634;5.566;2023-04-12T04:58:08;18.60;56.90
58153;DHT22;43967;51.634;5.566;2023-04-12T05:03:29;18.60;56.90
58153;DHT22;43967;51.634;5.566;2023-04-12T05:08:51;18.60;57.00
58153;DHT22;43967;51.634;5.566;2023-04-12T05:14:12;18.60;57.00
58153;DHT22;43967;51.634;5.566;2023-04-12T05:19:33;18.60;57.10
58153;DHT22;43967;51.634;5.566;2023-04-12T05:24:54;18.60;57.10
58153;DHT22;43967;51.634;5.566;2023-04-12T05:30:16;18.50;57.00
58153;DHT22;43967;51.634;5.566;2023-04-12T05:35:37;18.60;57.20
58153;DHT22;43967;51.634;5.566;2023-04-12T05:40:58;18.50;57.10
58153;DHT22;43967;51.634;5.566;2023-04-12T05:46:20;18.50;57.10
58153;DHT22;43967;51.634;5.566;2023-04-12T05:51:41;18.50;57.90
58153;DHT22;43967;51.634;5.566;2023-04-12T05:57:02;18.50;57.20
58153;DHT22;43967;51.634;5.566;2023-04-12T06:02:23;18.50;57.20
58153;DHT22;43967;51.634;5.566;2023-04-12T06:07:45;18.50;57.20
58153;DHT22;43967;51.634;5.566;2023-04-12T06:13:06;18.50;57.30
58153;DHT22;43967;51.634;5.566;2023-04-12T06:18:27;18.40;57.20
58153;DHT22;43967;51.634;5.566;2023-04-12T06:23:49;18.50;57.30
58153;DHT22;43967;51.634;5.566;2023-04-12T06:29:10;18.50;57.20
58153;DHT22;43967;51.634;5.566;2023-04-12T06:34:31;18.40;57.20
58153;DHT22;43967;51.634;5.566;2023-04-12T06:39:52;18.40;57.40
58153;DHT22;43967;51.634;5.566;2023-04-12T06:45:14;18.40;57.40
58153;DHT22;43967;51.634;5.566;2023-04-12T06:50:35;18.40;57.40
58153;DHT22;43967;51.634;5.566;2023-04-12T06:55:56;18.40;57.50
58153;DHT22;43967;51.634;5.566;2023-04-12T07:01:17;18.30;57.50
58153;DHT22;43967;51.634;5.566;2023-04-12T07:06:39;18.40;57.50
58153;DHT22;43967;51.634;5.566;2023-04-12T07:12:00;18.30;57.50
58153;DHT22;43967;51.634;5.566;2023-04-12T07:17:22;18.30;57.50
58153;DHT22;43967;51.634;5.566;2023-04-12T07:22:44;18.30;57.70
58153;DHT22;43967;51.634;5.566;2023-04-12T07:28:05;18.20;57.70
58153;DHT22;43967;51.634;5.566;2023-04-12T07:33:26;18.10;58.20
58153;DHT22;43967;51.634;5.566;2023-04-12T07:38:47;18.10;59.20
58153;DHT22;43967;51.634;5.566;2023-04-12T07:44:09;18.20;58.90
58153;DHT22;43967;51.634;5.566;2023-04-12T07:49:30;18.20;58.80
58153;DHT22;43967;51.634;5.566;2023-04-12T07:54:51;18.20;58.70
58153;DHT22;43967;51.634;5.566;2023-04-12T08:00:13;18.20;58.50
58153;DHT22;43967;51.634;5.566;2023-04-12T08:05:34;18.30;58.50
58153;DHT22;43967;51.634;5.566;2023-04-12T08:10:55;18.30;58.50
58153;DHT22;43967;51.634;5.566;2023-04-12T08:16:17;18.20;58.30
58153;DHT22;43967;51.634;5.566;2023-04-12T08:21:38;18.30;58.40
58153;DHT22;43967;51.634;5.566;2023-04-12T08:26:59;18.30;58.30
58153;DHT22;43967;51.634;5.566;2023-04-12T08:32:21;18.20;58.20
58153;DHT22;43967;51.634;5.566;2023-04-12T08:37:43;18.30;58.30
58153;DHT22;43967;51.634;5.566;2023-04-12T08:43:06;18.20;58.30
58153;DHT22;43967;51.634;5.566;2023-04-12T08:48:28;18.30;58.30
58153;DHT22;43967;51.634;5.566;2023-04-12T08:53:49;18.20;58.20
58153;DHT22;43967;51.634;5.566;2023-04-12T08:59:11;18.30;58.20
58153;DHT22;43967;51.634;5.566;2023-04-12T09:04:32;18.30;58.20
58153;DHT22;43967;51.634;5.566;2023-04-12T09:09:54;18.30;58.20
58153;DHT22;43967;51.634;5.566;2023-04-12T09:15:15;18.20;58.20
58153;DHT22;43967;51.634;5.566;2023-04-12T09:20:37;18.30;58.20
58153;DHT22;43967;51.634;5.566;2023-04-12T09:25:59;18.30;58.20
58153;DHT22;43967;51.634;5.566;2023-04-12T09:31:20;18.30;58.20
58153;DHT22;43967;51.634;5.566;2023-04-12T09:36:41;18.30;58.20
58153;DHT22;43967;51.634;5.566;2023-04-12T09:42:04;18.30;58.20
58153;DHT22;43967;51.634;5.566;2023-04-12T09:47:46;18.40;58.10
58153;DHT22;43967;51.634;5.566;2023-04-12T09:53:15;18.40;58.10
58153;DHT22;43967;51.634;5.566;2023-04-12T09:58:37;18.40;58.20
58153;DHT22;43967;51.634;5.566;2023-04-12T10:03:59;18.30;58.20
58153;DHT22;43967;51.634;5.566;2023-04-12T10:09:21;18.40;58.30
58153;DHT22;43967;51.634;5.566;2023-04-12T10:14:42;18.40;58.30
58153;DHT22;43967;51.634;5.566;2023-04-12T10:20:05;18.40;58.30
58153;DHT22;43967;51.634;5.566;2023-04-12T10:25:27;18.30;58.90
58153;DHT22;43967;51.634;5.566;2023-04-12T10:30:49;18.30;58.30
58153;DHT22;43967;51.634;5.566;2023-04-12T10:36:10;18.30;58.30
58153;DHT22;43967;51.634;5.566;2023-04-12T10:41:32;18.30;58.40
58153;DHT22;43967;51.634;5.566;2023-04-12T10:46:53;18.30;58.50
58153;DHT22;43967;51.634;5.566;2023-04-12T10:52:14;18.30;58.30
58153;DHT22;43967;51.634;5.566;2023-04-12T10:57:45;18.30;58.30
58153;DHT22;43967;51.634;5.566;2023-04-12T11:03:07;18.30;58.30
58153;DHT22;43967;51.634;5.566;2023-04-12T11:08:30;18.30;58.30
58153;DHT22;43967;51.634;5.566;2023-04-12T11:13:54;18.30;58.90
58153;DHT22;43967;51.634;5.566;2023-04-12T11:19:16;18.30;58.30
58153;DHT22;43967;51.634;5.566;2023-04-12T11:24:47;18.30;58.20
58153;DHT22;43967;51.634;5.566;2023-04-12T11:30:09;18.30;58.20
58153;DHT22;43967;51.634;5.566;2023-04-12T11:35:32;18.30;58.20
58153;DHT22;43967;51.634;5.566;2023-04-12T11:40:53;18.30;58.20
58153;DHT22;43967;51.634;5.566;2023-04-12T11:46:14;18.30;58.20
58153;DHT22;43967;51.634;5.566;2023-04-12T11:51:36;18.30;58.20
58153;DHT22;43967;51.634;5.566;2023-04-12T11:56:59;18.30;58.20
58153;DHT22;43967;51.634;5.566;2023-04-12T12:02:20;18.30;58.30
58153;DHT22;43967;51.634;5.566;2023-04-12T12:07:42;18.40;58.30
58153;DHT22;43967;51.634;5.566;2023-04-12T12:13:11;18.30;58.30
58153;DHT22;43967;51.634;5.566;2023-04-12T12:18:33;18.40;58.30
58153;DHT22;43967;51.634;5.566;2023-04-12T12:23:59;18.40;58.30
58153;DHT22;43967;51.634;5.566;2023-04-12T12:29:20;18.30;58.20
58153;DHT22;43967;51.634;5.566;2023-04-12T12:34:49;18.30;58.30
58153;DHT22;43967;51.634;5.566;2023-04-12T12:40:11;18.30;58.30
58153;DHT22;43967;51.634;5.566;2023-04-12T12:45:33;18.30;58.30
58153;DHT22;43967;51.634;5.566;2023-04-12T12:50:54;18.30;58.20
58153;DHT22;43967;51.634;5.566;2023-04-12T12:56:15;18.30;58.20
58153;DHT22;43967;51.634;5.566;2023-04-12T13:01:37;18.30;58.10
58153;DHT22;43967;51.634;5.566;2023-04-12T13:06:58;18.30;58.00
58153;DHT22;43967;51.634;5.566;2023-04-12T13:12:19;18.30;58.00
58153;DHT22;43967;51.634;5.566;2023-04-12T13:17:40;18.30;58.00
58153;DHT22;43967;51.634;5.566;2023-04-12T13:23:02;18.30;58.00
58153;DHT22;43967;51.634;5.566;2023-04-12T13:28:23;18.30;58.00
58153;DHT22;43967;51.634;5.566;2023-04-12T13:33:44;18.30;58.10
58153;DHT22;43967;51.634;5.566;2023-04-12T13:39:05;18.30;58.10
58153;DHT22;43967;51.634;5.566;2023-04-12T13:44:27;18.30;58.20
58153;DHT22;43967;51.634;5.566;2023-04-12T13:49:48;18.30;58.10
58153;DHT22;43967;51.634;5.566;2023-04-12T13:55:09;18.30;58.10
58153;DHT22;43967;51.634;5.566;2023-04-12T14:00:31;18.30;58.10
58153;DHT22;43967;51.634;5.566;2023-04-12T14:05:52;18.30;58.00
58153;DHT22;43967;51.634;5.566;2023-04-12T14:11:13;18.30;58.00
58153;DHT22;43967;51.634;5.566;2023-04-12T14:16:34;18.20;57.90
58153;DHT22;43967;51.634;5.566;2023-04-12T14:21:56;18.30;57.90
58153;DHT22;43967;51.634;5.566;2023-04-12T14:27:17;18.30;57.90
58153;DHT22;43967;51.634;5.566;2023-04-12T14:32:38;18.20;57.80
58153;DHT22;43967;51.634;5.566;2023-04-12T14:38:00;18.20;57.80
58153;DHT22;43967;51.634;5.566;2023-04-12T14:43:21;18.30;57.90
58153;DHT22;43967;51.634;5.566;2023-04-12T14:48:42;18.20;57.80
58153;DHT22;43967;51.634;5.566;2023-04-12T14:54:04;18.20;57.90
58153;DHT22;43967;51.634;5.566;2023-04-12T14:59:25;18.20;57.90
58153;DHT22;43967;51.634;5.566;2023-04-12T15:04:47;18.20;57.80
58153;DHT22;43967;51.634;5.566;2023-04-12T15:10:09;18.20;57.60
58153;DHT22;43967;51.634;5.566;2023-04-12T15:15:30;18.20;57.50
58153;DHT22;43967;51.634;5.566;2023-04-12T15:20:51;18.20;57.40
58153;DHT22;43967;51.634;5.566;2023-04-12T15:26:13;18.20;57.40
58153;DHT22;43967;51.634;5.566;2023-04-12T15:31:34;18.20;57.30
58153;DHT22;43967;51.634;5.566;2023-04-12T15:36:55;18.10;57.20
58153;DHT22;43967;51.634;5.566;2023-04-12T15:42:16;18.10;57.20
58153;DHT22;43967;51.634;5.566;2023-04-12T15:47:38;18.10;57.20
58153;DHT22;43967;51.634;5.566;2023-04-12T15:53:00;18.10;57.10
58153;DHT22;43967;51.634;5.566;2023-04-12T15:58:24;18.10;57.80
58153;DHT22;43967;51.634;5.566;2023-04-12T16:03:45;18.10;57.10
58153;DHT22;43967;51.634;5.566;2023-04-12T16:09:07;18.10;57.10
58153;DHT22;43967;51.634;5.566;2023-04-12T16:14:28;18.10;57.20
58153;DHT22;43967;51.634;5.566;2023-04-12T16:19:49;18.10;57.20
58153;DHT22;43967;51.634;5.566;2023-04-12T16:25:10;18.10;57.10
58153;DHT22;43967;51.634;5.566;2023-04-12T16:30:33;18.10;57.00
58153;DHT22;43967;51.634;5.566;2023-04-12T16:35:54;18.00;57.60
58153;DHT22;43967;51.634;5.566;2023-04-12T16:41:15;18.00;57.00
58153;DHT22;43967;51.634;5.566;2023-04-12T16:46:37;18.00;56.90
58153;DHT22;43967;51.634;5.566;2023-04-12T16:51:58;18.00;57.00
58153;DHT22;43967;51.634;5.566;2023-04-12T16:57:19;18.00;57.00
58153;DHT22;43967;51.634;5.566;2023-04-12T17:02:40;18.00;57.00
58153;DHT22;43967;51.634;5.566;2023-04-12T17:08:02;18.00;57.10
58153;DHT22;43967;51.634;5.566;2023-04-12T17:13:23;18.00;57.10
58153;DHT22;43967;51.634;5.566;2023-04-12T17:18:44;18.00;57.10
58153;DHT22;43967;51.634;5.566;2023-04-12T17:24:06;18.00;57.20
58153;DHT22;43967;51.634;5.566;2023-04-12T17:29:28;18.00;57.10
58153;DHT22;43967;51.634;5.566;2023-04-12T17:34:49;18.00;57.20
58153;DHT22;43967;51.634;5.566;2023-04-12T17:40:11;18.00;57.40
58153;DHT22;43967;51.634;5.566;2023-04-12T17:45:32;18.00;57.80
58153;DHT22;43967;51.634;5.566;2023-04-12T17:50:53;18.10;58.90
58153;DHT22;43967;51.634;5.566;2023-04-12T17:56:14;18.10;59.90
58153;DHT22;43967;51.634;5.566;2023-04-12T18:01:36;18.20;60.90
58153;DHT22;43967;51.634;5.566;2023-04-12T18:06:57;18.30;65.40
58153;DHT22;43967;51.634;5.566;2023-04-12T18:12:18;18.40;67.00
58153;DHT22;43967;51.634;5.566;2023-04-12T18:17:39;18.50;67.50
58153;DHT22;43967;51.634;5.566;2023-04-12T18:23:01;18.50;67.10
58153;DHT22;43967;51.634;5.566;2023-04-12T18:28:23;18.40;66.70
58153;DHT22;43967;51.634;5.566;2023-04-12T18:33:45;18.30;66.20
58153;DHT22;43967;51.634;5.566;2023-04-12T18:39:06;18.30;65.80
58153;DHT22;43967;51.634;5.566;2023-04-12T18:44:28;18.30;65.50
58153;DHT22;43967;51.634;5.566;2023-04-12T18:49:50;18.30;64.90
58153;DHT22;43967;51.634;5.566;2023-04-12T18:55:11;18.30;64.30
58153;DHT22;43967;51.634;5.566;2023-04-12T19:00:33;18.30;64.30
58153;DHT22;43967;51.634;5.566;2023-04-12T19:05:54;18.30;64.20
58153;DHT22;43967;51.634;5.566;2023-04-12T19:11:16;18.30;64.30
58153;DHT22;43967;51.634;5.566;2023-04-12T19:16:37;18.20;63.60
58153;DHT22;43967;51.634;5.566;2023-04-12T19:21:58;18.20;63.10
58153;DHT22;43967;51.634;5.566;2023-04-12T19:27:20;18.20;62.80
58153;DHT22;43967;51.634;5.566;2023-04-12T19:32:41;18.20;62.50
58153;DHT22;43967;51.634;5.566;2023-04-12T19:38:02;18.20;62.20
58153;DHT22;43967;51.634;5.566;2023-04-12T19:43:24;18.20;61.90
58153;DHT22;43967;51.634;5.566;2023-04-12T19:48:45;18.20;61.70
58153;DHT22;43967;51.634;5.566;2023-04-12T19:54:06;18.20;61.50
58153;DHT22;43967;51.634;5.566;2023-04-12T19:59:27;18.20;61.30
58153;DHT22;43967;51.634;5.566;2023-04-12T20:04:49;18.10;61.00
58153;DHT22;43967;51.634;5.566;2023-04-12T20:10:11;18.10;60.90
58153;DHT22;43967;51.634;5.566;2023-04-12T20:15:32;18.10;60.70
58153;DHT22;43967;51.634;5.566;2023-04-12T20:20:54;18.10;60.50
58153;DHT22;43967;51.634;5.566;2023-04-12T20:26:18;18.10;60.30
58153;DHT22;43967;51.634;5.566;2023-04-12T20:31:39;18.10;60.20
58153;DHT22;43967;51.634;5.566;2023-04-12T20:37:01;18.00;60.00
58153;DHT22;43967;51.634;5.566;2023-04-12T20:42:22;18.00;59.90
58153;DHT22;43967;51.634;5.566;2023-04-12T20:47:43;18.00;59.70
58153;DHT22;43967;51.634;5.566;2023-04-12T20:53:04;18.00;59.70
58153;DHT22;43967;51.634;5.566;2023-04-12T20:58:26;18.00;59.70
58153;DHT22;43967;51.634;5.566;2023-04-12T21:03:47;18.00;59.60
58153;DHT22;43967;51.634;5.566;2023-04-12T21:09:08;18.00;59.60
58153;DHT22;43967;51.634;5.566;2023-04-12T21:14:29;18.00;59.50
58153;DHT22;43967;51.634;5.566;2023-04-12T21:19:51;17.90;59.40
58153;DHT22;43967;51.634;5.566;2023-04-12T21:25:13;17.90;59.30
58153;DHT22;43967;51.634;5.566;2023-04-12T21:30:34;17.90;59.30
58153;DHT22;43967;51.634;5.566;2023-04-12T21:35:56;17.90;59.20
58153;DHT22;43967;51.634;5.566;2023-04-12T21:41:17;17.90;59.10
58153;DHT22;43967;51.634;5.566;2023-04-12T21:46:38;17.90;59.00
58153;DHT22;43967;51.634;5.566;2023-04-12T21:51:59;17.90;59.00
58153;DHT22;43967;51.634;5.566;2023-04-12T21:57:21;17.90;58.90
58153;DHT22;43967;51.634;5.566;2023-04-12T22:02:42;17.80;58.90
58153;DHT22;43967;51.634;5.566;2023-04-12T22:08:03;17.80;58.80
58153;DHT22;43967;51.634;5.566;2023-04-12T22:13:24;17.80;58.80
58153;DHT22;43967;51.634;5.566;2023-04-12T22:18:46;17.80;58.70
58153;DHT22;43967;51.634;5.566;2023-04-12T22:24:07;17.80;58.60
58153;DHT22;43967;51.634;5.566;2023-04-12T22:29:28;17.80;58.70
58153;DHT22;43967;51.634;5.566;2023-04-12T22:34:50;17.80;58.70
58153;DHT22;43967;51.634;5.566;2023-04-12T22:40:11;17.80;58.80
58153;DHT22;43967;51.634;5.566;2023-04-12T22:45:33;17.80;58.70
58153;DHT22;43967;51.634;5.566;2023-04-12T22:50:54;17.70;58.70
58153;DHT22;43967;51.634;5.566;2023-04-12T22:56:15;17.70;58.90
58153;DHT22;43967;51.634;5.566;2023-04-12T23:01:36;17.70;59.10
58153;DHT22;43967;51.634;5.566;2023-04-12T23:06:58;17.80;59.30
58153;DHT22;43967;51.634;5.566;2023-04-12T23:12:19;17.80;59.20
58153;DHT22;43967;51.634;5.566;2023-04-12T23:17:40;17.80;59.10
58153;DHT22;43967;51.634;5.566;2023-04-12T23:23:02;17.80;59.10
58153;DHT22;43967;51.634;5.566;2023-04-12T23:28:23;17.80;58.90
58153;DHT22;43967;51.634;5.566;2023-04-12T23:33:44;17.80;58.90
58153;DHT22;43967;51.634;5.566;2023-04-12T23:39:06;17.80;58.90
58153;DHT22;43967;51.634;5.566;2023-04-12T23:44:28;17.80;58.80
58153;DHT22;43967;51.634;5.566;2023-04-12T23:49:50;17.80;58.80
58153;DHT22;43967;51.634;5.566;2023-04-12T23:55:11;17.80;58.70
